sensor_id;sensor_type;location;lat;lon;timestamp;P1;durP1;ratioP1;P2;durP2;ratioP2
38935;SDS011;25541;47.458;9.644;2022-11-20T05:01:41;1.45;;;0.20;;
38935;SDS011;25541;47.458;9.644;2022-11-20T05:04:06;1.05;;;0.20;;
38935;SDS011;25541;47.458;9.644;2022-11-20T05:06:32;3.17;;;0.20;;
38935;SDS011;25541;47.458;9.644;2022-11-20T05:08:58;4.22;;;0.20;;
38935;SDS011;25541;47.458;9.644;2022-11-20T05:11:24;1.95;;;0.20;;
38935;SDS011;25541;47.458;9.644;2022-11-20T05:13:51;2.10;;;0.20;;
38935;SDS011;25541;47.458;9.644;2022-11-20T05:16:18;1.65;;;0.30;;
38935;SDS011;25541;47.458;9.644;2022-11-20T05:18:45;2.05;;;0.20;;
38935;SDS011;25541;47.458;9.644;2022-11-20T05:21:11;1.35;;;0.38;;
38935;SDS011;25541;47.458;9.644;2022-11-20T05:23:38;2.00;;;0.30;;
38935;SDS011;25541;47.458;9.644;2022-11-20T05:26:04;1.88;;;0.40;;
38935;SDS011;25541;47.458;9.644;2022-11-20T05:28:32;1.30;;;0.20;;
38935;SDS011;25541;47.458;9.644;2022-11-20T05:31:04;1.83;;;0.20;;
38935;SDS011;25541;47.458;9.644;2022-11-20T05:33:35;1.20;;;0.20;;
38935;SDS011;25541;47.458;9.644;2022-11-20T05:36:02;0.93;;;0.20;;
38935;SDS011;25541;47.458;9.644;2022-11-20T05:38:28;2.25;;;0.20;;
38935;SDS011;25541;47.458;9.644;2022-11-20T05:40:54;2.58;;;0.30;;
38935;SDS011;25541;47.458;9.644;2022-11-20T05:43:20;2.22;;;0.10;;
38935;SDS011;25541;47.458;9.644;2022-11-20T05:45:55;1.10;;;0.10;;
38935;SDS011;25541;47.458;9.644;2022-11-20T05:48:20;1.13;;;0.10;;
38935;SDS011;25541;47.458;9.644;2022-11-20T05:50:47;2.53;;;0.20;;
38935;SDS011;25541;47.458;9.644;2022-11-20T05:53:13;2.17;;;0.25;;
38935;SDS011;25541;47.458;9.644;2022-11-20T05:55:38;3.00;;;0.35;;
38935;SDS011;25541;47.458;9.644;2022-11-20T05:58:04;2.08;;;0.28;;
38935;SDS011;25541;47.458;9.644;2022-11-20T06:00:30;1.80;;;0.50;;
38935;SDS011;25541;47.458;9.644;2022-11-20T06:02:55;3.35;;;0.40;;
38935;SDS011;25541;47.458;9.644;2022-11-20T06:05:21;2.75;;;0.30;;
38935;SDS011;25541;47.458;9.644;2022-11-20T06:07:47;1.48;;;0.20;;
38935;SDS011;25541;47.458;9.644;2022-11-20T06:10:12;1.42;;;0.20;;
38935;SDS011;25541;47.458;9.644;2022-11-20T06:12:38;1.70;;;0.20;;
38935;SDS011;25541;47.458;9.644;2022-11-20T06:15:04;2.22;;;0.20;;
38935;SDS011;25541;47.458;9.644;2022-11-20T06:17:30;2.03;;;0.20;;
38935;SDS011;25541;47.458;9.644;2022-11-20T06:19:56;1.52;;;0.25;;
38935;SDS011;25541;47.458;9.644;2022-11-20T06:22:22;3.75;;;0.20;;
38935;SDS011;25541;47.458;9.644;2022-11-20T06:24:47;1.20;;;0.30;;
38935;SDS011;25541;47.458;9.644;2022-11-20T06:27:13;1.50;;;0.30;;
38935;SDS011;25541;47.458;9.644;2022-11-20T06:29:39;1.80;;;0.40;;
38935;SDS011;25541;47.458;9.644;2022-11-20T06:32:04;1.77;;;0.50;;
38935;SDS011;25541;47.458;9.644;2022-11-20T06:34:30;2.42;;;0.55;;
38935;SDS011;25541;47.458;9.644;2022-11-20T06:36:56;2.72;;;0.65;;
38935;SDS011;25541;47.458;9.644;2022-11-20T06:39:21;2.63;;;0.60;;
38935;SDS011;25541;47.458;9.644;2022-11-20T06:41:47;1.45;;;0.52;;
38935;SDS011;25541;47.458;9.644;2022-11-20T06:44:12;4.40;;;0.77;;
38935;SDS011;25541;47.458;9.644;2022-11-20T06:46:38;2.88;;;0.88;;
38935;SDS011;25541;47.458;9.644;2022-11-20T06:49:04;2.47;;;0.50;;
38935;SDS011;25541;47.458;9.644;2022-11-20T06:51:29;3.65;;;0.80;;
38935;SDS011;25541;47.458;9.644;2022-11-20T06:53:55;3.15;;;0.57;;
38935;SDS011;25541;47.458;9.644;2022-11-20T06:56:21;3.42;;;0.70;;
38935;SDS011;25541;47.458;9.644;2022-11-20T06:58:46;1.92;;;0.60;;
38935;SDS011;25541;47.458;9.644;2022-11-20T07:01:13;2.28;;;0.50;;
38935;SDS011;25541;47.458;9.644;2022-11-20T07:03:39;2.50;;;0.50;;
38935;SDS011;25541;47.458;9.644;2022-11-20T07:06:06;2.50;;;0.50;;
38935;SDS011;25541;47.458;9.644;2022-11-20T07:08:32;2.67;;;0.60;;
38935;SDS011;25541;47.458;9.644;2022-11-20T07:10:59;2.58;;;0.50;;
38935;SDS011;25541;47.458;9.644;2022-11-20T07:13:29;2.47;;;0.40;;
38935;SDS011;25541;47.458;9.644;2022-11-20T07:15:58;2.53;;;0.55;;
38935;SDS011;25541;47.458;9.644;2022-11-20T07:18:26;2.28;;;0.32;;
38935;SDS011;25541;47.458;9.644;2022-11-20T07:20:51;2.05;;;0.63;;
38935;SDS011;25541;47.458;9.644;2022-11-20T07:23:17;1.85;;;0.40;;
38935;SDS011;25541;47.458;9.644;2022-11-20T07:25:43;1.60;;;0.40;;
38935;SDS011;25541;47.458;9.644;2022-11-20T07:28:09;2.15;;;0.55;;
38935;SDS011;25541;47.458;9.644;2022-11-20T07:30:35;2.20;;;0.63;;
38935;SDS011;25541;47.458;9.644;2022-11-20T07:33:01;2.05;;;0.50;;
38935;SDS011;25541;47.458;9.644;2022-11-20T07:35:27;2.42;;;0.63;;
38935;SDS011;25541;47.458;9.644;2022-11-20T07:37:52;2.55;;;0.50;;
38935;SDS011;25541;47.458;9.644;2022-11-20T07:40:18;2.53;;;0.60;;
38935;SDS011;25541;47.458;9.644;2022-11-20T07:42:48;2.72;;;0.70;;
38935;SDS011;25541;47.458;9.644;2022-11-20T07:45:15;3.03;;;0.40;;
38935;SDS011;25541;47.458;9.644;2022-11-20T07:47:41;2.40;;;0.60;;
38935;SDS011;25541;47.458;9.644;2022-11-20T07:50:06;1.80;;;0.40;;
38935;SDS011;25541;47.458;9.644;2022-11-20T07:52:32;2.28;;;0.40;;
38935;SDS011;25541;47.458;9.644;2022-11-20T07:54:58;2.45;;;0.40;;
38935;SDS011;25541;47.458;9.644;2022-11-20T07:57:24;2.15;;;0.50;;
38935;SDS011;25541;47.458;9.644;2022-11-20T07:59:49;2.22;;;0.68;;
38935;SDS011;25541;47.458;9.644;2022-11-20T08:02:15;2.42;;;0.60;;
38935;SDS011;25541;47.458;9.644;2022-11-20T08:04:40;2.15;;;0.75;;
38935;SDS011;25541;47.458;9.644;2022-11-20T08:07:06;1.85;;;0.60;;
38935;SDS011;25541;47.458;9.644;2022-11-20T08:09:32;3.05;;;0.82;;
38935;SDS011;25541;47.458;9.644;2022-11-20T08:11:57;2.30;;;0.70;;
38935;SDS011;25541;47.458;9.644;2022-11-20T08:14:41;2.97;;;0.82;;
38935;SDS011;25541;47.458;9.644;2022-11-20T08:17:07;3.25;;;0.80;;
38935;SDS011;25541;47.458;9.644;2022-11-20T08:19:33;3.28;;;0.60;;
38935;SDS011;25541;47.458;9.644;2022-11-20T08:21:58;3.33;;;1.08;;
38935;SDS011;25541;47.458;9.644;2022-11-20T08:24:24;6.00;;;1.27;;
38935;SDS011;25541;47.458;9.644;2022-11-20T08:26:51;5.30;;;1.70;;
38935;SDS011;25541;47.458;9.644;2022-11-20T08:29:17;6.20;;;1.85;;
38935;SDS011;25541;47.458;9.644;2022-11-20T08:31:43;4.45;;;1.45;;
38935;SDS011;25541;47.458;9.644;2022-11-20T08:34:09;4.88;;;1.23;;
38935;SDS011;25541;47.458;9.644;2022-11-20T08:36:34;4.07;;;1.00;;
38935;SDS011;25541;47.458;9.644;2022-11-20T08:39:00;2.78;;;0.90;;
38935;SDS011;25541;47.458;9.644;2022-11-20T08:41:26;2.63;;;0.80;;
38935;SDS011;25541;47.458;9.644;2022-11-20T08:43:56;4.70;;;1.15;;
38935;SDS011;25541;47.458;9.644;2022-11-20T08:46:27;3.47;;;1.52;;
38935;SDS011;25541;47.458;9.644;2022-11-20T08:48:55;4.18;;;1.17;;
38935;SDS011;25541;47.458;9.644;2022-11-20T08:51:21;3.25;;;0.80;;
38935;SDS011;25541;47.458;9.644;2022-11-20T08:53:47;3.22;;;1.00;;
38935;SDS011;25541;47.458;9.644;2022-11-20T08:56:13;4.10;;;1.10;;
38935;SDS011;25541;47.458;9.644;2022-11-20T08:58:39;4.82;;;1.40;;
38935;SDS011;25541;47.458;9.644;2022-11-20T09:01:05;3.53;;;1.50;;
38935;SDS011;25541;47.458;9.644;2022-11-20T09:03:31;6.57;;;1.70;;
38935;SDS011;25541;47.458;9.644;2022-11-20T09:05:58;3.40;;;1.20;;
38935;SDS011;25541;47.458;9.644;2022-11-20T09:08:25;3.75;;;1.10;;
38935;SDS011;25541;47.458;9.644;2022-11-20T09:10:51;4.47;;;1.27;;
38935;SDS011;25541;47.458;9.644;2022-11-20T09:13:18;2.95;;;1.08;;
38935;SDS011;25541;47.458;9.644;2022-11-20T09:15:44;2.15;;;0.90;;
38935;SDS011;25541;47.458;9.644;2022-11-20T09:18:10;3.58;;;1.02;;
38935;SDS011;25541;47.458;9.644;2022-11-20T09:20:35;3.35;;;0.90;;
38935;SDS011;25541;47.458;9.644;2022-11-20T09:23:01;3.22;;;0.90;;
38935;SDS011;25541;47.458;9.644;2022-11-20T09:25:27;3.83;;;1.10;;
38935;SDS011;25541;47.458;9.644;2022-11-20T09:27:56;3.38;;;0.90;;
38935;SDS011;25541;47.458;9.644;2022-11-20T09:30:23;2.90;;;1.10;;
38935;SDS011;25541;47.458;9.644;2022-11-20T09:32:49;3.22;;;0.98;;
38935;SDS011;25541;47.458;9.644;2022-11-20T09:35:14;2.35;;;0.70;;
38935;SDS011;25541;47.458;9.644;2022-11-20T09:37:40;2.60;;;0.85;;
38935;SDS011;25541;47.458;9.644;2022-11-20T09:40:06;2.70;;;1.27;;
38935;SDS011;25541;47.458;9.644;2022-11-20T09:42:46;1.63;;;0.55;;
38935;SDS011;25541;47.458;9.644;2022-11-20T09:56:44;3.13;;;1.27;;
38935;SDS011;25541;47.458;9.644;2022-11-20T09:59:21;2.08;;;0.75;;
38935;SDS011;25541;47.458;9.644;2022-11-20T10:01:57;2.40;;;0.90;;
38935;SDS011;25541;47.458;9.644;2022-11-20T10:04:24;3.53;;;0.85;;
38935;SDS011;25541;47.458;9.644;2022-11-20T10:06:53;2.97;;;0.63;;
38935;SDS011;25541;47.458;9.644;2022-11-20T10:09:35;1.77;;;0.63;;
38935;SDS011;25541;47.458;9.644;2022-11-20T10:12:16;2.58;;;0.77;;
38935;SDS011;25541;47.458;9.644;2022-11-20T10:23:39;2.40;;;0.50;;
38935;SDS011;25541;47.458;9.644;2022-11-20T10:26:28;1.80;;;0.40;;
38935;SDS011;25541;47.458;9.644;2022-11-20T10:29:12;1.85;;;0.50;;
38935;SDS011;25541;47.458;9.644;2022-11-20T10:31:41;4.57;;;1.02;;
38935;SDS011;25541;47.458;9.644;2022-11-20T10:34:27;1.83;;;0.30;;
38935;SDS011;25541;47.458;9.644;2022-11-20T10:37:02;1.13;;;0.20;;
38935;SDS011;25541;47.458;9.644;2022-11-20T10:39:41;1.80;;;0.22;;
38935;SDS011;25541;47.458;9.644;2022-11-20T10:42:32;0.82;;;0.20;;
38935;SDS011;25541;47.458;9.644;2022-11-20T10:47:56;1.20;;;0.20;;
38935;SDS011;25541;47.458;9.644;2022-11-20T10:56:04;2.20;;;0.25;;
38935;SDS011;25541;47.458;9.644;2022-11-20T10:58:38;0.90;;;0.20;;
38935;SDS011;25541;47.458;9.644;2022-11-20T11:01:15;1.70;;;0.10;;
38935;SDS011;25541;47.458;9.644;2022-11-20T11:03:43;2.75;;;0.22;;
38935;SDS011;25541;47.458;9.644;2022-11-20T11:09:04;2.53;;;0.38;;
38935;SDS011;25541;47.458;9.644;2022-11-20T11:11:38;2.45;;;0.60;;
38935;SDS011;25541;47.458;9.644;2022-11-20T11:14:04;2.47;;;0.40;;
38935;SDS011;25541;47.458;9.644;2022-11-20T11:16:31;1.02;;;0.30;;
38935;SDS011;25541;47.458;9.644;2022-11-20T11:19:04;2.17;;;0.20;;
38935;SDS011;25541;47.458;9.644;2022-11-20T11:21:44;0.88;;;0.10;;
38935;SDS011;25541;47.458;9.644;2022-11-20T11:24:23;1.30;;;0.20;;
38935;SDS011;25541;47.458;9.644;2022-11-20T11:27:10;1.38;;;0.10;;
38935;SDS011;25541;47.458;9.644;2022-11-20T11:29:37;0.95;;;0.17;;
38935;SDS011;25541;47.458;9.644;2022-11-20T11:32:07;1.17;;;0.20;;
38935;SDS011;25541;47.458;9.644;2022-11-20T11:35:02;1.38;;;0.15;;
38935;SDS011;25541;47.458;9.644;2022-11-20T11:37:32;9.85;;;4.18;;
38935;SDS011;25541;47.458;9.644;2022-11-20T11:40:00;3.83;;;1.20;;
38935;SDS011;25541;47.458;9.644;2022-11-20T11:42:27;1.45;;;0.20;;
38935;SDS011;25541;47.458;9.644;2022-11-20T11:44:54;1.17;;;0.20;;
38935;SDS011;25541;47.458;9.644;2022-11-20T11:47:42;2.53;;;0.20;;
38935;SDS011;25541;47.458;9.644;2022-11-20T11:52:44;1.20;;;0.10;;
38935;SDS011;25541;47.458;9.644;2022-11-20T11:55:28;0.80;;;0.10;;
38935;SDS011;25541;47.458;9.644;2022-11-20T12:00:26;1.58;;;0.30;;
38935;SDS011;25541;47.458;9.644;2022-11-20T12:02:54;2.47;;;0.20;;
38935;SDS011;25541;47.458;9.644;2022-11-20T12:08:11;1.15;;;0.20;;
38935;SDS011;25541;47.458;9.644;2022-11-20T12:10:45;1.80;;;0.20;;
38935;SDS011;25541;47.458;9.644;2022-11-20T12:15:39;1.27;;;0.35;;
38935;SDS011;25541;47.458;9.644;2022-11-20T12:18:18;3.08;;;1.20;;
38935;SDS011;25541;47.458;9.644;2022-11-20T12:20:50;2.47;;;0.35;;
38935;SDS011;25541;47.458;9.644;2022-11-20T12:26:22;2.22;;;0.98;;
38935;SDS011;25541;47.458;9.644;2022-11-20T12:32:03;1.23;;;0.22;;
38935;SDS011;25541;47.458;9.644;2022-11-20T12:43:21;1.52;;;0.20;;
38935;SDS011;25541;47.458;9.644;2022-11-20T12:57:34;1.48;;;0.20;;
38935;SDS011;25541;47.458;9.644;2022-11-20T13:00:24;0.88;;;0.10;;
38935;SDS011;25541;47.458;9.644;2022-11-20T13:05:24;0.93;;;0.15;;
38935;SDS011;25541;47.458;9.644;2022-11-20T13:08:20;0.73;;;0.10;;
38935;SDS011;25541;47.458;9.644;2022-11-20T13:17:05;0.90;;;0.10;;
38935;SDS011;25541;47.458;9.644;2022-11-20T13:19:30;2.47;;;0.30;;
38935;SDS011;25541;47.458;9.644;2022-11-20T13:21:57;1.88;;;0.22;;
38935;SDS011;25541;47.458;9.644;2022-11-20T13:24:27;0.88;;;0.10;;
38935;SDS011;25541;47.458;9.644;2022-11-20T13:29:40;1.88;;;0.08;;
38935;SDS011;25541;47.458;9.644;2022-11-20T13:34:51;2.38;;;0.10;;
38935;SDS011;25541;47.458;9.644;2022-11-20T13:37:58;1.55;;;0.20;;
38935;SDS011;25541;47.458;9.644;2022-11-20T13:42:37;1.27;;;0.30;;
38935;SDS011;25541;47.458;9.644;2022-11-20T13:45:09;0.70;;;0.10;;
38935;SDS011;25541;47.458;9.644;2022-11-20T13:47:50;1.25;;;0.20;;
38935;SDS011;25541;47.458;9.644;2022-11-20T13:50:17;5.45;;;2.97;;
38935;SDS011;25541;47.458;9.644;2022-11-20T13:55:49;8.77;;;4.38;;
38935;SDS011;25541;47.458;9.644;2022-11-20T14:01:24;1.23;;;0.20;;
38935;SDS011;25541;47.458;9.644;2022-11-20T14:03:54;0.55;;;0.10;;
38935;SDS011;25541;47.458;9.644;2022-11-20T14:06:27;1.10;;;0.20;;
38935;SDS011;25541;47.458;9.644;2022-11-20T14:08:56;0.60;;;0.10;;
38935;SDS011;25541;47.458;9.644;2022-11-20T14:11:24;1.25;;;0.20;;
38935;SDS011;25541;47.458;9.644;2022-11-20T14:14:04;2.25;;;0.40;;
38935;SDS011;25541;47.458;9.644;2022-11-20T14:16:34;1.60;;;0.15;;
38935;SDS011;25541;47.458;9.644;2022-11-20T14:21:48;1.33;;;0.22;;
38935;SDS011;25541;47.458;9.644;2022-11-20T14:24:22;1.60;;;0.30;;
38935;SDS011;25541;47.458;9.644;2022-11-20T14:26:49;2.03;;;0.40;;
38935;SDS011;25541;47.458;9.644;2022-11-20T14:29:17;8.45;;;1.00;;
38935;SDS011;25541;47.458;9.644;2022-11-20T14:31:47;0.88;;;0.10;;
38935;SDS011;25541;47.458;9.644;2022-11-20T14:34:18;2.13;;;0.40;;
38935;SDS011;25541;47.458;9.644;2022-11-20T14:36:59;2.13;;;0.25;;
38935;SDS011;25541;47.458;9.644;2022-11-20T14:39:32;1.30;;;0.10;;
38935;SDS011;25541;47.458;9.644;2022-11-20T14:42:00;0.75;;;0.08;;
38935;SDS011;25541;47.458;9.644;2022-11-20T14:44:27;1.10;;;0.10;;
38935;SDS011;25541;47.458;9.644;2022-11-20T14:46:55;1.80;;;0.10;;
38935;SDS011;25541;47.458;9.644;2022-11-20T14:49:22;1.42;;;0.10;;
38935;SDS011;25541;47.458;9.644;2022-11-20T14:51:58;2.53;;;0.20;;
38935;SDS011;25541;47.458;9.644;2022-11-20T14:54:25;1.08;;;0.20;;
38935;SDS011;25541;47.458;9.644;2022-11-20T14:57:02;2.00;;;0.30;;
38935;SDS011;25541;47.458;9.644;2022-11-20T15:01:59;1.33;;;0.10;;
38935;SDS011;25541;47.458;9.644;2022-11-20T15:04:30;0.40;;;0.00;;
38935;SDS011;25541;47.458;9.644;2022-11-20T15:06:58;1.02;;;0.10;;
38935;SDS011;25541;47.458;9.644;2022-11-20T15:09:24;0.88;;;0.10;;
38935;SDS011;25541;47.458;9.644;2022-11-20T15:11:57;0.80;;;0.20;;
38935;SDS011;25541;47.458;9.644;2022-11-20T15:14:25;0.90;;;0.10;;
38935;SDS011;25541;47.458;9.644;2022-11-20T15:16:53;0.50;;;0.00;;
38935;SDS011;25541;47.458;9.644;2022-11-20T15:19:23;1.05;;;0.10;;
38935;SDS011;25541;47.458;9.644;2022-11-20T15:21:51;1.35;;;0.10;;
38935;SDS011;25541;47.458;9.644;2022-11-20T15:24:17;0.68;;;0.05;;
38935;SDS011;25541;47.458;9.644;2022-11-20T15:26:43;0.73;;;0.03;;
38935;SDS011;25541;47.458;9.644;2022-11-20T15:29:10;1.23;;;0.28;;
38935;SDS011;25541;47.458;9.644;2022-11-20T15:31:38;1.70;;;0.38;;
38935;SDS011;25541;47.458;9.644;2022-11-20T15:34:12;0.93;;;0.10;;
38935;SDS011;25541;47.458;9.644;2022-11-20T15:36:40;0.70;;;0.10;;
38935;SDS011;25541;47.458;9.644;2022-11-20T15:39:06;1.58;;;0.13;;
38935;SDS011;25541;47.458;9.644;2022-11-20T15:41:33;1.13;;;0.20;;
38935;SDS011;25541;47.458;9.644;2022-11-20T15:44:06;1.38;;;0.20;;
38935;SDS011;25541;47.458;9.644;2022-11-20T15:46:33;0.60;;;0.10;;
38935;SDS011;25541;47.458;9.644;2022-11-20T15:49:06;2.15;;;0.20;;
38935;SDS011;25541;47.458;9.644;2022-11-20T15:51:38;1.05;;;0.10;;
38935;SDS011;25541;47.458;9.644;2022-11-20T15:54:13;1.00;;;0.15;;
38935;SDS011;25541;47.458;9.644;2022-11-20T15:56:45;0.80;;;0.20;;
38935;SDS011;25541;47.458;9.644;2022-11-20T15:59:11;1.70;;;0.30;;
38935;SDS011;25541;47.458;9.644;2022-11-20T16:01:40;1.98;;;0.40;;
38935;SDS011;25541;47.458;9.644;2022-11-20T16:04:10;1.35;;;0.30;;
38935;SDS011;25541;47.458;9.644;2022-11-20T16:06:37;0.70;;;0.10;;
38935;SDS011;25541;47.458;9.644;2022-11-20T16:09:02;0.80;;;0.10;;
38935;SDS011;25541;47.458;9.644;2022-11-20T16:11:28;0.73;;;0.10;;
38935;SDS011;25541;47.458;9.644;2022-11-20T16:13:54;2.00;;;0.10;;
38935;SDS011;25541;47.458;9.644;2022-11-20T16:16:38;1.25;;;0.20;;
38935;SDS011;25541;47.458;9.644;2022-11-20T16:19:05;0.95;;;0.10;;
38935;SDS011;25541;47.458;9.644;2022-11-20T16:21:31;1.00;;;0.10;;
38935;SDS011;25541;47.458;9.644;2022-11-20T16:24:00;1.08;;;0.10;;
38935;SDS011;25541;47.458;9.644;2022-11-20T16:26:28;1.13;;;0.20;;
38935;SDS011;25541;47.458;9.644;2022-11-20T16:28:54;1.80;;;0.20;;
38935;SDS011;25541;47.458;9.644;2022-11-20T16:31:20;3.92;;;0.32;;
38935;SDS011;25541;47.458;9.644;2022-11-20T16:33:49;1.23;;;0.20;;
38935;SDS011;25541;47.458;9.644;2022-11-20T16:38:53;2.97;;;0.22;;
38935;SDS011;25541;47.458;9.644;2022-11-20T16:41:20;2.58;;;0.30;;
38935;SDS011;25541;47.458;9.644;2022-11-20T16:43:47;1.55;;;0.22;;
38935;SDS011;25541;47.458;9.644;2022-11-20T16:46:18;4.70;;;0.50;;
38935;SDS011;25541;47.458;9.644;2022-11-20T16:48:51;3.20;;;0.30;;
38935;SDS011;25541;47.458;9.644;2022-11-20T16:51:29;3.13;;;0.85;;
38935;SDS011;25541;47.458;9.644;2022-11-20T16:53:55;4.60;;;1.63;;
38935;SDS011;25541;47.458;9.644;2022-11-20T16:56:24;4.53;;;1.60;;
38935;SDS011;25541;47.458;9.644;2022-11-20T16:58:52;4.63;;;1.27;;
38935;SDS011;25541;47.458;9.644;2022-11-20T17:01:20;6.10;;;1.80;;
38935;SDS011;25541;47.458;9.644;2022-11-20T17:03:53;6.03;;;1.85;;
38935;SDS011;25541;47.458;9.644;2022-11-20T17:06:21;6.32;;;1.85;;
38935;SDS011;25541;47.458;9.644;2022-11-20T17:08:49;6.22;;;1.80;;
38935;SDS011;25541;47.458;9.644;2022-11-20T17:11:16;5.53;;;1.67;;
38935;SDS011;25541;47.458;9.644;2022-11-20T17:13:43;5.47;;;1.50;;
38935;SDS011;25541;47.458;9.644;2022-11-20T17:16:10;5.22;;;1.50;;
38935;SDS011;25541;47.458;9.644;2022-11-20T17:18:38;6.70;;;2.15;;
38935;SDS011;25541;47.458;9.644;2022-11-20T17:21:05;6.00;;;2.25;;
38935;SDS011;25541;47.458;9.644;2022-11-20T17:23:34;7.53;;;2.55;;
38935;SDS011;25541;47.458;9.644;2022-11-20T17:26:06;8.02;;;2.58;;
38935;SDS011;25541;47.458;9.644;2022-11-20T17:28:38;8.57;;;3.20;;
38935;SDS011;25541;47.458;9.644;2022-11-20T17:31:05;10.27;;;2.83;;
38935;SDS011;25541;47.458;9.644;2022-11-20T17:33:33;11.45;;;4.93;;
38935;SDS011;25541;47.458;9.644;2022-11-20T17:36:00;15.32;;;6.32;;
38935;SDS011;25541;47.458;9.644;2022-11-20T17:38:27;11.65;;;5.18;;
38935;SDS011;25541;47.458;9.644;2022-11-20T17:40:53;12.07;;;5.28;;
38935;SDS011;25541;47.458;9.644;2022-11-20T17:43:25;11.25;;;4.55;;
38935;SDS011;25541;47.458;9.644;2022-11-20T17:45:51;14.95;;;5.25;;
38935;SDS011;25541;47.458;9.644;2022-11-20T17:48:17;13.13;;;5.78;;
38935;SDS011;25541;47.458;9.644;2022-11-20T17:50:42;12.02;;;5.82;;
38935;SDS011;25541;47.458;9.644;2022-11-20T17:53:08;13.65;;;6.25;;
38935;SDS011;25541;47.458;9.644;2022-11-20T17:55:34;19.50;;;7.28;;
38935;SDS011;25541;47.458;9.644;2022-11-20T17:58:19;14.60;;;5.82;;
38935;SDS011;25541;47.458;9.644;2022-11-20T18:00:45;15.38;;;6.75;;
38935;SDS011;25541;47.458;9.644;2022-11-20T18:03:11;13.98;;;5.78;;
38935;SDS011;25541;47.458;9.644;2022-11-20T18:05:36;12.45;;;6.18;;
38935;SDS011;25541;47.458;9.644;2022-11-20T18:08:02;10.55;;;4.78;;
38935;SDS011;25541;47.458;9.644;2022-11-20T18:10:28;14.52;;;5.00;;
38935;SDS011;25541;47.458;9.644;2022-11-20T18:12:54;11.40;;;2.50;;
38935;SDS011;25541;47.458;9.644;2022-11-20T18:15:20;22.48;;;3.05;;
38935;SDS011;25541;47.458;9.644;2022-11-20T18:17:46;4.38;;;1.10;;
38935;SDS011;25541;47.458;9.644;2022-11-20T18:20:12;5.35;;;0.88;;
38935;SDS011;25541;47.458;9.644;2022-11-20T18:22:38;6.45;;;2.38;;
38935;SDS011;25541;47.458;9.644;2022-11-20T18:25:03;7.50;;;2.10;;
38935;SDS011;25541;47.458;9.644;2022-11-20T18:27:30;9.43;;;2.80;;
38935;SDS011;25541;47.458;9.644;2022-11-20T18:29:56;7.10;;;2.10;;
38935;SDS011;25541;47.458;9.644;2022-11-20T18:32:22;6.85;;;2.05;;
38935;SDS011;25541;47.458;9.644;2022-11-20T18:34:47;6.13;;;1.95;;
38935;SDS011;25541;47.458;9.644;2022-11-20T18:37:14;5.38;;;2.00;;
38935;SDS011;25541;47.458;9.644;2022-11-20T18:39:40;9.77;;;3.78;;
38935;SDS011;25541;47.458;9.644;2022-11-20T18:42:10;9.30;;;3.78;;
38935;SDS011;25541;47.458;9.644;2022-11-20T18:44:55;5.53;;;2.47;;
38935;SDS011;25541;47.458;9.644;2022-11-20T18:47:22;6.57;;;2.30;;
38935;SDS011;25541;47.458;9.644;2022-11-20T18:49:50;6.60;;;2.33;;
38935;SDS011;25541;47.458;9.644;2022-11-20T18:52:17;6.32;;;2.40;;
38935;SDS011;25541;47.458;9.644;2022-11-20T18:54:45;8.32;;;2.40;;
38935;SDS011;25541;47.458;9.644;2022-11-20T18:57:11;6.75;;;2.60;;
38935;SDS011;25541;47.458;9.644;2022-11-20T18:59:39;7.22;;;2.45;;
38935;SDS011;25541;47.458;9.644;2022-11-20T19:02:08;9.30;;;3.50;;
38935;SDS011;25541;47.458;9.644;2022-11-20T19:04:35;11.20;;;3.97;;
38935;SDS011;25541;47.458;9.644;2022-11-20T19:07:01;10.55;;;4.75;;
38935;SDS011;25541;47.458;9.644;2022-11-20T19:09:27;12.15;;;4.28;;
38935;SDS011;25541;47.458;9.644;2022-11-20T19:11:53;10.15;;;4.13;;
38935;SDS011;25541;47.458;9.644;2022-11-20T19:14:19;8.20;;;3.50;;
38935;SDS011;25541;47.458;9.644;2022-11-20T19:16:44;9.02;;;4.30;;
38935;SDS011;25541;47.458;9.644;2022-11-20T19:19:13;7.13;;;2.60;;
38935;SDS011;25541;47.458;9.644;2022-11-20T19:21:39;7.63;;;2.22;;
38935;SDS011;25541;47.458;9.644;2022-11-20T19:24:06;5.40;;;1.90;;
38935;SDS011;25541;47.458;9.644;2022-11-20T19:26:36;5.10;;;1.63;;
38935;SDS011;25541;47.458;9.644;2022-11-20T19:29:02;6.38;;;1.88;;
38935;SDS011;25541;47.458;9.644;2022-11-20T19:31:29;5.13;;;1.75;;
38935;SDS011;25541;47.458;9.644;2022-11-20T19:33:57;5.53;;;1.90;;
38935;SDS011;25541;47.458;9.644;2022-11-20T19:36:25;5.75;;;1.85;;
38935;SDS011;25541;47.458;9.644;2022-11-20T19:38:53;5.18;;;1.42;;
38935;SDS011;25541;47.458;9.644;2022-11-20T19:41:20;4.18;;;1.40;;
38935;SDS011;25541;47.458;9.644;2022-11-20T19:43:55;5.85;;;1.35;;
38935;SDS011;25541;47.458;9.644;2022-11-20T19:46:26;4.97;;;1.67;;
38935;SDS011;25541;47.458;9.644;2022-11-20T19:48:53;11.85;;;4.25;;
38935;SDS011;25541;47.458;9.644;2022-11-20T19:51:20;8.20;;;2.70;;
38935;SDS011;25541;47.458;9.644;2022-11-20T19:53:48;7.93;;;2.42;;
38935;SDS011;25541;47.458;9.644;2022-11-20T19:56:14;4.47;;;1.20;;
38935;SDS011;25541;47.458;9.644;2022-11-20T19:58:40;3.97;;;0.95;;
38935;SDS011;25541;47.458;9.644;2022-11-20T20:01:07;2.35;;;0.25;;
38935;SDS011;25541;47.458;9.644;2022-11-20T20:03:38;1.20;;;0.20;;
38935;SDS011;25541;47.458;9.644;2022-11-20T20:06:08;1.08;;;0.13;;
38935;SDS011;25541;47.458;9.644;2022-11-20T20:08:37;0.98;;;0.10;;
38935;SDS011;25541;47.458;9.644;2022-11-20T20:13:35;2.22;;;0.35;;
38935;SDS011;25541;47.458;9.644;2022-11-20T20:16:01;1.52;;;0.25;;
38935;SDS011;25541;47.458;9.644;2022-11-20T20:18:29;2.50;;;0.20;;
38935;SDS011;25541;47.458;9.644;2022-11-20T20:20:55;1.52;;;0.13;;
38935;SDS011;25541;47.458;9.644;2022-11-20T20:23:27;1.65;;;0.20;;
38935;SDS011;25541;47.458;9.644;2022-11-20T20:25:52;1.48;;;0.20;;
38935;SDS011;25541;47.458;9.644;2022-11-20T20:28:18;0.85;;;0.20;;
38935;SDS011;25541;47.458;9.644;2022-11-20T20:30:43;1.20;;;0.20;;
38935;SDS011;25541;47.458;9.644;2022-11-20T20:33:09;1.98;;;0.15;;
38935;SDS011;25541;47.458;9.644;2022-11-20T20:35:38;0.98;;;0.10;;
38935;SDS011;25541;47.458;9.644;2022-11-20T20:38:06;1.52;;;0.20;;
38935;SDS011;25541;47.458;9.644;2022-11-20T20:40:32;1.10;;;0.10;;
38935;SDS011;25541;47.458;9.644;2022-11-20T20:42:57;1.27;;;0.10;;
38935;SDS011;25541;47.458;9.644;2022-11-20T20:45:23;2.17;;;0.10;;
38935;SDS011;25541;47.458;9.644;2022-11-20T20:47:48;1.05;;;0.00;;
38935;SDS011;25541;47.458;9.644;2022-11-20T20:50:14;1.48;;;0.10;;
38935;SDS011;25541;47.458;9.644;2022-11-20T20:52:40;0.47;;;0.10;;
38935;SDS011;25541;47.458;9.644;2022-11-20T20:55:06;1.58;;;0.20;;
38935;SDS011;25541;47.458;9.644;2022-11-20T20:57:32;1.30;;;0.10;;
38935;SDS011;25541;47.458;9.644;2022-11-20T20:59:58;0.60;;;0.20;;
38935;SDS011;25541;47.458;9.644;2022-11-20T21:02:24;2.75;;;0.30;;
38935;SDS011;25541;47.458;9.644;2022-11-20T21:04:50;0.35;;;0.03;;
38935;SDS011;25541;47.458;9.644;2022-11-20T21:07:16;0.40;;;0.10;;
38935;SDS011;25541;47.458;9.644;2022-11-20T21:09:42;0.50;;;0.10;;
38935;SDS011;25541;47.458;9.644;2022-11-20T21:12:08;0.90;;;0.10;;
38935;SDS011;25541;47.458;9.644;2022-11-20T21:14:34;0.70;;;0.22;;
38935;SDS011;25541;47.458;9.644;2022-11-20T21:16:59;1.13;;;0.20;;
38935;SDS011;25541;47.458;9.644;2022-11-20T21:19:25;1.60;;;0.20;;
38935;SDS011;25541;47.458;9.644;2022-11-20T21:21:51;0.63;;;0.10;;
38935;SDS011;25541;47.458;9.644;2022-11-20T21:24:23;1.02;;;0.10;;
38935;SDS011;25541;47.458;9.644;2022-11-20T21:26:50;2.42;;;0.10;;
38935;SDS011;25541;47.458;9.644;2022-11-20T21:29:16;1.75;;;0.10;;
38935;SDS011;25541;47.458;9.644;2022-11-20T21:31:43;1.25;;;0.10;;
38935;SDS011;25541;47.458;9.644;2022-11-20T21:34:09;1.10;;;0.10;;
38935;SDS011;25541;47.458;9.644;2022-11-20T21:36:36;1.08;;;0.03;;
38935;SDS011;25541;47.458;9.644;2022-11-20T21:39:01;1.15;;;0.10;;